sensor_id;sensor_type;location;lat;lon;timestamp;pressure;altitude;pressure_sealevel;temperature;humidity
44297;BME280;51842;47.450;8.654;2023-07-13T00:00:04;95642.72;;;15.97;100.00
44297;BME280;51842;47.450;8.654;2023-07-13T00:02:36;95640.03;;;15.97;100.00
44297;BME280;51842;47.450;8.654;2023-07-13T00:05:03;95641.75;;;15.93;100.00
44297;BME280;51842;47.450;8.654;2023-07-13T00:07:29;95637.47;;;15.92;100.00
44297;BME280;51842;47.450;8.654;2023-07-13T00:09:56;95638.84;;;15.89;100.00
44297;BME280;51842;47.450;8.654;2023-07-13T00:12:31;95629.69;;;15.90;100.00
44297;BME280;51842;47.450;8.654;2023-07-13T00:15:01;95621.44;;;15.87;100.00
44297;BME280;51842;47.450;8.654;2023-07-13T00:17:29;95610.97;;;15.85;100.00
44297;BME280;51842;47.450;8.654;2023-07-13T00:19:56;95614.47;;;15.86;100.00
44297;BME280;51842;47.450;8.654;2023-07-13T00:22:23;95607.63;;;15.80;100.00
44297;BME280;51842;47.450;8.654;2023-07-13T00:24:52;95611.09;;;15.80;100.00
44297;BME280;51842;47.450;8.654;2023-07-13T00:27:19;95606.91;;;15.74;100.00
44297;BME280;51842;47.450;8.654;2023-07-13T00:29:45;95604.50;;;15.72;100.00
44297;BME280;51842;47.450;8.654;2023-07-13T00:32:11;95603.81;;;15.67;100.00
44297;BME280;51842;47.450;8.654;2023-07-13T00:34:38;95596.31;;;15.64;100.00
44297;BME280;51842;47.450;8.654;2023-07-13T00:37:06;95597.41;;;15.63;100.00
44297;BME280;51842;47.450;8.654;2023-07-13T00:39:33;95596.19;;;15.55;100.00
44297;BME280;51842;47.450;8.654;2023-07-13T00:42:01;95605.31;;;15.54;100.00
44297;BME280;51842;47.450;8.654;2023-07-13T00:44:27;95599.09;;;15.59;100.00
44297;BME280;51842;47.450;8.654;2023-07-13T00:46:53;95602.38;;;15.56;100.00
44297;BME280;51842;47.450;8.654;2023-07-13T00:49:22;95601.56;;;15.55;100.00
44297;BME280;51842;47.450;8.654;2023-07-13T00:54:33;95601.84;;;15.54;100.00
44297;BME280;51842;47.450;8.654;2023-07-13T00:57:07;95602.94;;;15.53;100.00
44297;BME280;51842;47.450;8.654;2023-07-13T00:59:35;95604.06;;;15.52;100.00
44297;BME280;51842;47.450;8.654;2023-07-13T01:02:03;95601.66;;;15.50;100.00
44297;BME280;51842;47.450;8.654;2023-07-13T01:04:29;95600.53;;;15.51;100.00
44297;BME280;51842;47.450;8.654;2023-07-13T01:06:57;95598.16;;;15.49;100.00
44297;BME280;51842;47.450;8.654;2023-07-13T01:09:26;95590.78;;;15.41;100.00
44297;BME280;51842;47.450;8.654;2023-07-13T01:11:52;95586.81;;;15.39;100.00
44297;BME280;51842;47.450;8.654;2023-07-13T01:14:18;95577.47;;;15.36;100.00
44297;BME280;51842;47.450;8.654;2023-07-13T01:16:46;95580.16;;;15.36;100.00
44297;BME280;51842;47.450;8.654;2023-07-13T01:19:42;95583.72;;;15.32;100.00
44297;BME280;51842;47.450;8.654;2023-07-13T01:22:16;95590.16;;;15.31;100.00
44297;BME280;51842;47.450;8.654;2023-07-13T01:24:47;95581.59;;;15.28;100.00
44297;BME280;51842;47.450;8.654;2023-07-13T01:27:16;95583.50;;;15.28;100.00
44297;BME280;51842;47.450;8.654;2023-07-13T01:29:45;95585.09;;;15.29;100.00
44297;BME280;51842;47.450;8.654;2023-07-13T01:32:19;95587.28;;;15.27;100.00
44297;BME280;51842;47.450;8.654;2023-07-13T01:34:51;95592.13;;;15.25;100.00
44297;BME280;51842;47.450;8.654;2023-07-13T01:37:20;95592.13;;;15.25;100.00
44297;BME280;51842;47.450;8.654;2023-07-13T01:39:46;95599.66;;;15.23;100.00
44297;BME280;51842;47.450;8.654;2023-07-13T01:42:13;95602.66;;;15.21;100.00
44297;BME280;51842;47.450;8.654;2023-07-13T01:44:39;95618.75;;;15.21;100.00
44297;BME280;51842;47.450;8.654;2023-07-13T01:47:05;95612.28;;;15.22;100.00
44297;BME280;51842;47.450;8.654;2023-07-13T01:49:31;95612.28;;;15.22;100.00
44297;BME280;51842;47.450;8.654;2023-07-13T01:51:57;95615.50;;;15.24;100.00
44297;BME280;51842;47.450;8.654;2023-07-13T01:54:23;95610.91;;;15.25;100.00
44297;BME280;51842;47.450;8.654;2023-07-13T01:56:49;95610.13;;;15.24;100.00
44297;BME280;51842;47.450;8.654;2023-07-13T01:59:15;95612.03;;;15.24;100.00
44297;BME280;51842;47.450;8.654;2023-07-13T02:01:40;95615.78;;;15.23;100.00
44297;BME280;51842;47.450;8.654;2023-07-13T02:04:06;95615.50;;;15.24;100.00
44297;BME280;51842;47.450;8.654;2023-07-13T02:06:32;95627.81;;;15.25;100.00
44297;BME280;51842;47.450;8.654;2023-07-13T02:08:59;95621.66;;;15.25;100.00
44297;BME280;51842;47.450;8.654;2023-07-13T02:11:25;95612.59;;;15.21;100.00
44297;BME280;51842;47.450;8.654;2023-07-13T02:13:51;95617.97;;;15.21;100.00
44297;BME280;51842;47.450;8.654;2023-07-13T02:16:17;95623.03;;;15.22;100.00
44297;BME280;51842;47.450;8.654;2023-07-13T02:18:43;95624.91;;;15.22;100.00
44297;BME280;51842;47.450;8.654;2023-07-13T02:21:09;95616.88;;;15.22;100.00
44297;BME280;51842;47.450;8.654;2023-07-13T02:23:34;95611.81;;;15.20;100.00
44297;BME280;51842;47.450;8.654;2023-07-13T02:26:03;95620.94;;;15.19;100.00
44297;BME280;51842;47.450;8.654;2023-07-13T02:28:29;95628.19;;;15.19;100.00
44297;BME280;51842;47.450;8.654;2023-07-13T02:30:55;95617.19;;;15.20;100.00
44297;BME280;51842;47.450;8.654;2023-07-13T02:33:21;95611.50;;;15.22;100.00
44297;BME280;51842;47.450;8.654;2023-07-13T02:35:46;95605.03;;;15.23;100.00
44297;BME280;51842;47.450;8.654;2023-07-13T02:38:12;95611.50;;;15.22;100.00
44297;BME280;51842;47.450;8.654;2023-07-13T02:40:38;95610.41;;;15.23;100.00
44297;BME280;51842;47.450;8.654;2023-07-13T02:43:04;95614.69;;;15.24;100.00
44297;BME280;51842;47.450;8.654;2023-07-13T02:45:29;95601.78;;;15.26;100.00
44297;BME280;51842;47.450;8.654;2023-07-13T02:47:55;95611.44;;;15.27;100.00
44297;BME280;51842;47.450;8.654;2023-07-13T02:50:21;95616.50;;;15.28;100.00
44297;BME280;51842;47.450;8.654;2023-07-13T02:52:47;95607.97;;;15.26;100.00
44297;BME280;51842;47.450;8.654;2023-07-13T02:55:12;95600.41;;;15.28;100.00
44297;BME280;51842;47.450;8.654;2023-07-13T02:57:38;95601.69;;;15.31;100.00
44297;BME280;51842;47.450;8.654;2023-07-13T03:00:05;95594.94;;;15.34;100.00
44297;BME280;51842;47.450;8.654;2023-07-13T03:02:32;95592.78;;;15.36;100.00
44297;BME280;51842;47.450;8.654;2023-07-13T03:04:58;95594.66;;;15.35;100.00
44297;BME280;51842;47.450;8.654;2023-07-13T03:07:24;95593.38;;;15.33;100.00
44297;BME280;51842;47.450;8.654;2023-07-13T03:09:55;95597.84;;;15.37;100.00
44297;BME280;51842;47.450;8.654;2023-07-13T03:12:22;95602.94;;;15.39;100.00
44297;BME280;51842;47.450;8.654;2023-07-13T03:14:47;95604.00;;;15.38;100.00
44297;BME280;51842;47.450;8.654;2023-07-13T03:17:13;95610.66;;;15.40;100.00
44297;BME280;51842;47.450;8.654;2023-07-13T03:19:39;95608.00;;;15.40;100.00
44297;BME280;51842;47.450;8.654;2023-07-13T03:22:05;95604.50;;;15.40;100.00
44297;BME280;51842;47.450;8.654;2023-07-13T03:24:33;95614.47;;;15.39;100.00
44297;BME280;51842;47.450;8.654;2023-07-13T03:27:01;95622.50;;;15.39;100.00
44297;BME280;51842;47.450;8.654;2023-07-13T03:29:27;95616.03;;;15.40;100.00
44297;BME280;51842;47.450;8.654;2023-07-13T03:31:53;95619.81;;;15.39;100.00
44297;BME280;51842;47.450;8.654;2023-07-13T03:34:19;95620.63;;;15.40;100.00
44297;BME280;51842;47.450;8.654;2023-07-13T03:36:45;95622.78;;;15.38;100.00
44297;BME280;51842;47.450;8.654;2023-07-13T03:39:10;95616.63;;;15.37;100.00
44297;BME280;51842;47.450;8.654;2023-07-13T03:41:37;95618.22;;;15.38;100.00
44297;BME280;51842;47.450;8.654;2023-07-13T03:44:03;95621.41;;;15.40;100.00
44297;BME280;51842;47.450;8.654;2023-07-13T03:46:29;95618.44;;;15.42;100.00
44297;BME280;51842;47.450;8.654;2023-07-13T03:48:55;95619.25;;;15.42;100.00
44297;BME280;51842;47.450;8.654;2023-07-13T03:51:21;95624.59;;;15.42;100.00
44297;BME280;51842;47.450;8.654;2023-07-13T03:53:48;95631.56;;;15.43;100.00
44297;BME280;51842;47.450;8.654;2023-07-13T03:56:16;95616.03;;;15.40;100.00
44297;BME280;51842;47.450;8.654;2023-07-13T03:58:48;95620.03;;;15.43;100.00
44297;BME280;51842;47.450;8.654;2023-07-13T04:01:20;95615.97;;;15.45;100.00
44297;BME280;51842;47.450;8.654;2023-07-13T04:03:46;95615.97;;;15.45;100.00
44297;BME280;51842;47.450;8.654;2023-07-13T04:06:20;95614.88;;;15.46;100.00
44297;BME280;51842;47.450;8.654;2023-07-13T04:08:53;95618.94;;;15.44;100.00
44297;BME280;51842;47.450;8.654;2023-07-13T04:11:22;95620.75;;;15.48;100.00
44297;BME280;51842;47.450;8.654;2023-07-13T04:13:49;95628.22;;;15.52;100.00
44297;BME280;51842;47.450;8.654;2023-07-13T04:16:17;95634.06;;;15.54;100.00
44297;BME280;51842;47.450;8.654;2023-07-13T04:18:44;95625.41;;;15.57;100.00
44297;BME280;51842;47.450;8.654;2023-07-13T04:21:10;95635.56;;;15.60;100.00
44297;BME280;51842;47.450;8.654;2023-07-13T04:23:37;95635.28;;;15.61;100.00
44297;BME280;51842;47.450;8.654;2023-07-13T04:26:04;95638.19;;;15.65;100.00
44297;BME280;51842;47.450;8.654;2023-07-13T04:28:30;95635.13;;;15.71;100.00
44297;BME280;51842;47.450;8.654;2023-07-13T04:30:57;95638.81;;;15.76;100.00
44297;BME280;51842;47.450;8.654;2023-07-13T04:33:23;95647.59;;;15.81;100.00
44297;BME280;51842;47.450;8.654;2023-07-13T04:35:54;95641.34;;;15.86;100.00
44297;BME280;51842;47.450;8.654;2023-07-13T04:38:28;95640.94;;;15.92;100.00
44297;BME280;51842;47.450;8.654;2023-07-13T04:40:57;95638.75;;;15.94;100.00
44297;BME280;51842;47.450;8.654;2023-07-13T04:43:24;95652.69;;;15.96;100.00
44297;BME280;51842;47.450;8.654;2023-07-13T04:45:54;95656.97;;;15.98;100.00
44297;BME280;51842;47.450;8.654;2023-07-13T04:48:21;95655.06;;;15.98;100.00
44297;BME280;51842;47.450;8.654;2023-07-13T04:50:47;95653.69;;;16.01;100.00
44297;BME280;51842;47.450;8.654;2023-07-13T04:53:13;95660.06;;;16.05;100.00
44297;BME280;51842;47.450;8.654;2023-07-13T04:55:39;95665.34;;;16.10;100.00
44297;BME280;51842;47.450;8.654;2023-07-13T04:58:06;95666.13;;;16.10;100.00
44297;BME280;51842;47.450;8.654;2023-07-13T05:00:32;95670.44;;;16.11;100.00
44297;BME280;51842;47.450;8.654;2023-07-13T05:03:00;95664.75;;;16.13;100.00
44297;BME280;51842;47.450;8.654;2023-07-13T05:05:26;95671.94;;;16.17;100.00
44297;BME280;51842;47.450;8.654;2023-07-13T05:07:53;95680.47;;;16.19;100.00
44297;BME280;51842;47.450;8.654;2023-07-13T05:10:20;95683.66;;;16.22;100.00
44297;BME280;51842;47.450;8.654;2023-07-13T05:12:46;95691.13;;;16.25;100.00
44297;BME280;51842;47.450;8.654;2023-07-13T05:15:12;95695.91;;;16.28;100.00
44297;BME280;51842;47.450;8.654;2023-07-13T05:17:38;95693.41;;;16.31;100.00
44297;BME280;51842;47.450;8.654;2023-07-13T05:20:09;95689.34;;;16.34;100.00
44297;BME280;51842;47.450;8.654;2023-07-13T05:22:35;95693.13;;;16.33;100.00
44297;BME280;51842;47.450;8.654;2023-07-13T05:25:06;95687.97;;;16.36;100.00
44297;BME280;51842;47.450;8.654;2023-07-13T05:27:33;95697.00;;;16.40;100.00
44297;BME280;51842;47.450;8.654;2023-07-13T05:29:59;95705.28;;;16.44;100.00
44297;BME280;51842;47.450;8.654;2023-07-13T05:32:24;95702.31;;;16.46;100.00
44297;BME280;51842;47.450;8.654;2023-07-13T05:34:50;95704.16;;;16.45;100.00
44297;BME280;51842;47.450;8.654;2023-07-13T05:37:16;95703.97;;;16.41;100.00
44297;BME280;51842;47.450;8.654;2023-07-13T05:39:41;95714.13;;;16.45;100.00
44297;BME280;51842;47.450;8.654;2023-07-13T05:42:07;95717.91;;;16.43;100.00
44297;BME280;51842;47.450;8.654;2023-07-13T05:44:33;95722.50;;;16.43;100.00
44297;BME280;51842;47.450;8.654;2023-07-13T05:46:59;95717.13;;;16.43;100.00
44297;BME280;51842;47.450;8.654;2023-07-13T05:49:24;95711.75;;;16.43;100.00
44297;BME280;51842;47.450;8.654;2023-07-13T05:51:50;95713.94;;;16.41;100.00
44297;BME280;51842;47.450;8.654;2023-07-13T05:54:16;95711.25;;;16.41;100.00
44297;BME280;51842;47.450;8.654;2023-07-13T05:56:42;95709.06;;;16.43;100.00
44297;BME280;51842;47.450;8.654;2023-07-13T05:59:08;95719.81;;;16.43;100.00
44297;BME280;51842;47.450;8.654;2023-07-13T06:01:34;95722.97;;;16.45;100.00
44297;BME280;51842;47.450;8.654;2023-07-13T06:03:59;95732.34;;;16.48;100.00
44297;BME280;51842;47.450;8.654;2023-07-13T06:06:25;95734.75;;;16.49;100.00
44297;BME280;51842;47.450;8.654;2023-07-13T06:08:51;95736.53;;;16.54;100.00
44297;BME280;51842;47.450;8.654;2023-07-13T06:11:23;95737.66;;;16.53;100.00
44297;BME280;51842;47.450;8.654;2023-07-13T06:13:50;95741.31;;;16.57;100.00
44297;BME280;51842;47.450;8.654;2023-07-13T06:16:16;95741.44;;;16.52;100.00
44297;BME280;51842;47.450;8.654;2023-07-13T06:18:43;95743.81;;;16.53;100.00
44297;BME280;51842;47.450;8.654;2023-07-13T06:21:15;95743.63;;;16.50;100.00
44297;BME280;51842;47.450;8.654;2023-07-13T06:23:42;95741.44;;;16.52;100.00
44297;BME280;51842;47.450;8.654;2023-07-13T06:26:09;95747.81;;;16.56;100.00
44297;BME280;51842;47.450;8.654;2023-07-13T06:28:37;95758.84;;;16.54;100.00
44297;BME280;51842;47.450;8.654;2023-07-13T06:31:07;95764.72;;;16.56;100.00
44297;BME280;51842;47.450;8.654;2023-07-13T06:33:33;95766.31;;;16.57;100.00
44297;BME280;51842;47.450;8.654;2023-07-13T06:36:03;95757.44;;;16.57;100.00
44297;BME280;51842;47.450;8.654;2023-07-13T06:38:29;95768.63;;;16.64;100.00
44297;BME280;51842;47.450;8.654;2023-07-13T06:40:55;95772.00;;;16.70;100.00
44297;BME280;51842;47.450;8.654;2023-07-13T06:43:21;95771.34;;;16.78;100.00
44297;BME280;51842;47.450;8.654;2023-07-13T06:45:49;95773.63;;;16.84;100.00
44297;BME280;51842;47.450;8.654;2023-07-13T06:48:19;95769.75;;;16.91;100.00
44297;BME280;51842;47.450;8.654;2023-07-13T06:50:47;95770.44;;;16.96;100.00
44297;BME280;51842;47.450;8.654;2023-07-13T06:53:13;95783.78;;;17.01;100.00
44297;BME280;51842;47.450;8.654;2023-07-13T06:55:40;95787.69;;;17.09;100.00
44297;BME280;51842;47.450;8.654;2023-07-13T06:58:06;95782.16;;;17.14;100.00
44297;BME280;51842;47.450;8.654;2023-07-13T07:00:32;95783.19;;;17.18;100.00
44297;BME280;51842;47.450;8.654;2023-07-13T07:02:58;95785.13;;;17.26;100.00
44297;BME280;51842;47.450;8.654;2023-07-13T07:05:23;95787.53;;;17.28;100.00
44297;BME280;51842;47.450;8.654;2023-07-13T07:07:51;95787.13;;;17.34;100.00
44297;BME280;51842;47.450;8.654;2023-07-13T07:10:18;95795.59;;;17.42;100.00
44297;BME280;51842;47.450;8.654;2023-07-13T07:12:44;95786.81;;;17.50;100.00
44297;BME280;51842;47.450;8.654;2023-07-13T07:15:10;95784.97;;;17.59;100.00
44297;BME280;51842;47.450;8.654;2023-07-13T07:17:36;95782.66;;;17.66;100.00
44297;BME280;51842;47.450;8.654;2023-07-13T07:20:03;95781.16;;;17.74;100.00
44297;BME280;51842;47.450;8.654;2023-07-13T07:22:30;95778.97;;;17.62;100.00
44297;BME280;51842;47.450;8.654;2023-07-13T07:24:57;95787.00;;;17.76;100.00
44297;BME280;51842;47.450;8.654;2023-07-13T07:27:24;95790.50;;;17.90;100.00
44297;BME280;51842;47.450;8.654;2023-07-13T07:29:50;95778.16;;;17.98;100.00
44297;BME280;51842;47.450;8.654;2023-07-13T07:32:16;95771.00;;;18.16;100.00
44297;BME280;51842;47.450;8.654;2023-07-13T07:34:42;95781.84;;;18.24;100.00
44297;BME280;51842;47.450;8.654;2023-07-13T07:37:12;95788.94;;;18.20;100.00
44297;BME280;51842;47.450;8.654;2023-07-13T07:39:38;95783.47;;;18.34;100.00
44297;BME280;51842;47.450;8.654;2023-07-13T07:42:05;95785.00;;;18.49;100.00
44297;BME280;51842;47.450;8.654;2023-07-13T07:44:32;95790.72;;;18.56;100.00
44297;BME280;51842;47.450;8.654;2023-07-13T07:46:58;95791.66;;;18.74;100.00
44297;BME280;51842;47.450;8.654;2023-07-13T07:49:24;95789.50;;;18.93;100.00
44297;BME280;51842;47.450;8.654;2023-07-13T07:51:51;95806.69;;;19.06;100.00
44297;BME280;51842;47.450;8.654;2023-07-13T07:54:17;95792.72;;;19.13;100.00
44297;BME280;51842;47.450;8.654;2023-07-13T07:56:43;95789.41;;;19.25;100.00
44297;BME280;51842;47.450;8.654;2023-07-13T07:59:09;95774.00;;;19.42;100.00
44297;BME280;51842;47.450;8.654;2023-07-13T08:01:36;95777.34;;;19.48;100.00
44297;BME280;51842;47.450;8.654;2023-07-13T08:04:02;95790.88;;;19.57;100.00
44297;BME280;51842;47.450;8.654;2023-07-13T08:06:28;95803.63;;;19.74;100.00
44297;BME280;51842;47.450;8.654;2023-07-13T08:08:55;95799.19;;;19.69;98.91
44297;BME280;51842;47.450;8.654;2023-07-13T08:11:22;95792.31;;;19.63;97.49
44297;BME280;51842;47.450;8.654;2023-07-13T08:13:49;95782.00;;;19.56;98.08
44297;BME280;51842;47.450;8.654;2023-07-13T08:16:15;95787.56;;;19.95;97.45
44297;BME280;51842;47.450;8.654;2023-07-13T08:18:41;95797.06;;;20.27;94.06
44297;BME280;51842;47.450;8.654;2023-07-13T08:21:08;95797.84;;;20.45;89.04
44297;BME280;51842;47.450;8.654;2023-07-13T08:23:35;95799.69;;;20.70;89.29
44297;BME280;51842;47.450;8.654;2023-07-13T08:26:01;95802.53;;;20.83;88.95
44297;BME280;51842;47.450;8.654;2023-07-13T08:28:29;95801.25;;;20.80;85.44
44297;BME280;51842;47.450;8.654;2023-07-13T08:30:54;95808.53;;;20.97;87.32
44297;BME280;51842;47.450;8.654;2023-07-13T08:33:22;95799.25;;;21.07;85.36
44297;BME280;51842;47.450;8.654;2023-07-13T08:35:51;95803.66;;;21.11;84.24
44297;BME280;51842;47.450;8.654;2023-07-13T08:38:18;95804.63;;;21.15;86.63
44297;BME280;51842;47.450;8.654;2023-07-13T08:40:53;95802.75;;;21.37;86.47
44297;BME280;51842;47.450;8.654;2023-07-13T08:43:30;95800.47;;;21.47;84.59
44297;BME280;51842;47.450;8.654;2023-07-13T08:46:24;95800.94;;;21.91;85.36
44297;BME280;51842;47.450;8.654;2023-07-13T08:48:59;95800.78;;;22.09;81.07
44297;BME280;51842;47.450;8.654;2023-07-13T08:52:00;95808.31;;;22.45;78.54
44297;BME280;51842;47.450;8.654;2023-07-13T08:54:32;95797.72;;;22.64;70.57
44297;BME280;51842;47.450;8.654;2023-07-13T08:57:18;95797.88;;;22.93;72.08
44297;BME280;51842;47.450;8.654;2023-07-13T08:59:46;95800.50;;;23.26;71.02
44297;BME280;51842;47.450;8.654;2023-07-13T09:04:59;95805.41;;;23.97;62.25
44297;BME280;51842;47.450;8.654;2023-07-13T09:10:52;95809.16;;;23.93;65.15
44297;BME280;51842;47.450;8.654;2023-07-13T09:16:25;95802.19;;;24.36;62.74
44297;BME280;51842;47.450;8.654;2023-07-13T09:18:56;95809.84;;;24.90;62.77
44297;BME280;51842;47.450;8.654;2023-07-13T09:21:40;95798.53;;;25.20;56.32
44297;BME280;51842;47.450;8.654;2023-07-13T09:24:38;95798.75;;;25.46;56.93
44297;BME280;51842;47.450;8.654;2023-07-13T09:27:19;95793.94;;;25.94;60.39
44297;BME280;51842;47.450;8.654;2023-07-13T09:32:51;95801.75;;;26.73;52.54
44297;BME280;51842;47.450;8.654;2023-07-13T09:35:25;95804.28;;;26.63;52.99
44297;BME280;51842;47.450;8.654;2023-07-13T09:38:02;95800.16;;;26.11;52.26
44297;BME280;51842;47.450;8.654;2023-07-13T09:41:21;95805.03;;;26.21;52.48
44297;BME280;51842;47.450;8.654;2023-07-13T09:44:27;95807.31;;;26.19;54.65
44297;BME280;51842;47.450;8.654;2023-07-13T09:46:56;95805.59;;;25.91;55.55
44297;BME280;51842;47.450;8.654;2023-07-13T09:49:31;95813.00;;;25.75;55.56
44297;BME280;51842;47.450;8.654;2023-07-13T09:52:03;95807.25;;;25.60;55.88
44297;BME280;51842;47.450;8.654;2023-07-13T09:54:36;95804.38;;;25.37;55.26
44297;BME280;51842;47.450;8.654;2023-07-13T09:57:18;95808.78;;;25.42;55.92
44297;BME280;51842;47.450;8.654;2023-07-13T09:59:47;95802.81;;;25.21;59.18
44297;BME280;51842;47.450;8.654;2023-07-13T10:02:39;95818.78;;;24.90;57.93
44297;BME280;51842;47.450;8.654;2023-07-13T10:05:14;95816.13;;;24.34;60.42
44297;BME280;51842;47.450;8.654;2023-07-13T10:07:44;95815.66;;;24.16;64.25
44297;BME280;51842;47.450;8.654;2023-07-13T10:10:21;95810.19;;;23.88;68.34
44297;BME280;51842;47.450;8.654;2023-07-13T10:12:49;95818.13;;;23.56;68.64
44297;BME280;51842;47.450;8.654;2023-07-13T10:15:23;95816.91;;;23.05;67.25
44297;BME280;51842;47.450;8.654;2023-07-13T10:17:53;95821.34;;;22.97;72.57
44297;BME280;51842;47.450;8.654;2023-07-13T10:20:21;95824.31;;;22.83;72.37
44297;BME280;51842;47.450;8.654;2023-07-13T10:23:04;95823.28;;;22.63;73.27
44297;BME280;51842;47.450;8.654;2023-07-13T10:25:39;95820.03;;;22.37;77.68
44297;BME280;51842;47.450;8.654;2023-07-13T10:28:24;95819.84;;;22.21;75.75
44297;BME280;51842;47.450;8.654;2023-07-13T10:30:53;95824.84;;;22.19;73.81
44297;BME280;51842;47.450;8.654;2023-07-13T10:33:22;95819.66;;;22.26;74.56
44297;BME280;51842;47.450;8.654;2023-07-13T10:35:59;95817.97;;;22.34;73.22
44297;BME280;51842;47.450;8.654;2023-07-13T10:38:28;95822.00;;;22.49;72.22
44297;BME280;51842;47.450;8.654;2023-07-13T10:41:01;95824.50;;;22.54;69.61
44297;BME280;51842;47.450;8.654;2023-07-13T10:43:48;95828.50;;;22.81;72.15
44297;BME280;51842;47.450;8.654;2023-07-13T10:46:20;95814.19;;;23.05;68.95
44297;BME280;51842;47.450;8.654;2023-07-13T10:48:53;95816.34;;;23.12;67.58
44297;BME280;51842;47.450;8.654;2023-07-13T10:51:21;95820.91;;;23.20;64.69
44297;BME280;51842;47.450;8.654;2023-07-13T10:56:42;95822.56;;;23.61;64.59
44297;BME280;51842;47.450;8.654;2023-07-13T11:01:56;95820.50;;;24.23;61.31
44297;BME280;51842;47.450;8.654;2023-07-13T11:04:26;95817.03;;;24.38;62.24
44297;BME280;51842;47.450;8.654;2023-07-13T11:07:25;95813.03;;;24.48;60.25
44297;BME280;51842;47.450;8.654;2023-07-13T11:09:56;95813.63;;;25.01;64.22
44297;BME280;51842;47.450;8.654;2023-07-13T11:25:38;95811.13;;;26.95;54.14
44297;BME280;51842;47.450;8.654;2023-07-13T11:30:49;95799.97;;;27.57;50.62
44297;BME280;51842;47.450;8.654;2023-07-13T11:36:14;95796.19;;;27.39;48.44
44297;BME280;51842;47.450;8.654;2023-07-13T11:39:27;95788.56;;;27.25;49.42
44297;BME280;51842;47.450;8.654;2023-07-13T11:42:00;95788.41;;;27.67;53.01
44297;BME280;51842;47.450;8.654;2023-07-13T11:44:29;95798.44;;;27.83;54.09
44297;BME280;51842;47.450;8.654;2023-07-13T11:47:09;95796.13;;;27.88;50.14
44297;BME280;51842;47.450;8.654;2023-07-13T11:49:44;95782.38;;;28.11;50.30
44297;BME280;51842;47.450;8.654;2023-07-13T11:52:21;95781.47;;;28.04;47.43
44297;BME280;51842;47.450;8.654;2023-07-13T11:54:52;95783.81;;;27.75;49.34
44297;BME280;51842;47.450;8.654;2023-07-13T11:57:40;95771.31;;;28.04;50.45
44297;BME280;51842;47.450;8.654;2023-07-13T12:00:20;95772.44;;;28.00;45.38
44297;BME280;51842;47.450;8.654;2023-07-13T12:02:51;95778.00;;;28.07;47.91
44297;BME280;51842;47.450;8.654;2023-07-13T12:05:20;95778.22;;;27.95;47.46
44297;BME280;51842;47.450;8.654;2023-07-13T12:07:49;95783.72;;;27.68;48.97
44297;BME280;51842;47.450;8.654;2023-07-13T12:10:30;95783.56;;;27.84;48.07
44297;BME280;51842;47.450;8.654;2023-07-13T12:13:03;95783.31;;;27.93;48.02
44297;BME280;51842;47.450;8.654;2023-07-13T12:15:45;95775.44;;;27.91;45.96
44297;BME280;51842;47.450;8.654;2023-07-13T12:18:19;95778.84;;;27.54;48.52
44297;BME280;51842;47.450;8.654;2023-07-13T12:20:48;95779.69;;;27.58;50.67
44297;BME280;51842;47.450;8.654;2023-07-13T12:25:54;95767.03;;;27.77;44.88
44297;BME280;51842;47.450;8.654;2023-07-13T12:31:03;95765.78;;;28.68;45.99
44297;BME280;51842;47.450;8.654;2023-07-13T12:33:32;95767.66;;;29.01;46.01
44297;BME280;51842;47.450;8.654;2023-07-13T12:36:02;95762.59;;;29.03;43.58
44297;BME280;51842;47.450;8.654;2023-07-13T12:38:31;95764.34;;;28.85;45.27
44297;BME280;51842;47.450;8.654;2023-07-13T12:40:58;95764.78;;;28.91;43.20
44297;BME280;51842;47.450;8.654;2023-07-13T12:43:26;95764.03;;;28.49;43.76
44297;BME280;51842;47.450;8.654;2023-07-13T12:46:04;95752.84;;;28.69;44.65
44297;BME280;51842;47.450;8.654;2023-07-13T12:48:39;95758.56;;;28.49;48.11
44297;BME280;51842;47.450;8.654;2023-07-13T12:51:13;95758.28;;;28.28;44.33
44297;BME280;51842;47.450;8.654;2023-07-13T12:53:50;95761.50;;;28.33;43.70
44297;BME280;51842;47.450;8.654;2023-07-13T12:56:24;95768.56;;;28.38;46.66
44297;BME280;51842;47.450;8.654;2023-07-13T12:59:02;95759.53;;;28.34;45.34
44297;BME280;51842;47.450;8.654;2023-07-13T13:01:32;95766.31;;;28.44;46.81
44297;BME280;51842;47.450;8.654;2023-07-13T13:04:02;95769.31;;;28.35;46.01
44297;BME280;51842;47.450;8.654;2023-07-13T13:06:34;95762.50;;;28.52;46.50
44297;BME280;51842;47.450;8.654;2023-07-13T13:09:02;95757.75;;;28.49;45.35
44297;BME280;51842;47.450;8.654;2023-07-13T13:11:31;95762.66;;;28.70;44.93
44297;BME280;51842;47.450;8.654;2023-07-13T13:13:57;95756.84;;;28.78;42.30
44297;BME280;51842;47.450;8.654;2023-07-13T13:16:49;95764.22;;;29.12;44.88
44297;BME280;51842;47.450;8.654;2023-07-13T13:19:23;95754.59;;;29.39;41.90
44297;BME280;51842;47.450;8.654;2023-07-13T13:21:49;95746.09;;;29.59;41.61
44297;BME280;51842;47.450;8.654;2023-07-13T13:24:22;95753.38;;;29.99;41.70
44297;BME280;51842;47.450;8.654;2023-07-13T13:26:51;95745.16;;;30.03;39.08
44297;BME280;51842;47.450;8.654;2023-07-13T13:29:20;95744.88;;;30.29;39.77
44297;BME280;51842;47.450;8.654;2023-07-13T13:31:47;95736.31;;;30.59;39.23
44297;BME280;51842;47.450;8.654;2023-07-13T13:34:15;95752.69;;;30.24;38.14
44297;BME280;51842;47.450;8.654;2023-07-13T13:36:43;95748.97;;;29.80;39.25
44297;BME280;51842;47.450;8.654;2023-07-13T13:39:23;95751.00;;;29.87;40.03
44297;BME280;51842;47.450;8.654;2023-07-13T13:41:51;95747.31;;;29.61;42.79
44297;BME280;51842;47.450;8.654;2023-07-13T13:44:18;95745.38;;;29.65;40.10
44297;BME280;51842;47.450;8.654;2023-07-13T13:46:48;95744.31;;;29.88;41.63
44297;BME280;51842;47.450;8.654;2023-07-13T13:49:27;95742.38;;;29.99;39.13